logo
Rechercher aéroport 
image banner adimage banner adimage banner ad
image banner ad

FASA - Sandhurst

Situé à Sani Pass, South Africa

ICAO - FASA, IATA -

Données fournies par Airmate  

Information générale

Coordonnées: S25°43'9" E23°47'24"
Élévation : 3592 feet MSL.
 
Voir autres Aéroports à Kwazulu-Natal

Données opérationnelles

Special qualification required
Heure actuelle UTC:
Heure actuelle locale:
Météo à : - ( 0 km )
METAR: UUOK 172108Z AUTO 23005MPS 9999 // ///006/// 19/18 Q1009 RMK QBB180 QFE739/0986
Voir NOTAMs / SUP AIP / TFR affectant cet aéroport [VIEW]
Fréquences de communication: [VIEW]

Pistes:

Identifiant RWYQFULongueur (ft)Largeur (ft)SurfaceLDA (ft)
10165°393749SAND
28345°393749SAND

Coordonnées de l'aéroport

Adresse: Sani Pass South Africa

Vue satellite de FASA